Time;durP1;ratioP1;P1;durP2;ratioP2;P2;SDS_P1;SDS_P2;PMS_P1;PMS_P2;Temp;Humidity;BMP_temperature;BMP_pressure;BME280_temperature;BME280_humidity;BME280_pressure;Samples;Min_cycle;Max_cycle;Signal;HPM_P1;HPM_P2
2023/10/31 00:00:32;;;;;;;4.03;2.60;;;;;;;9.62;100.00;99558.16;5056030;28;20027;-71
2023/10/31 00:02:58;;;;;;;7.57;3.92;;;;;;;9.69;100.00;99574.84;5069728;28;20696;-71
2023/10/31 00:05:23;;;;;;;5.70;3.40;;;;;;;9.63;100.00;99570.41;5069697;28;20028;-70
2023/10/31 00:07:49;;;;;;;9.07;3.95;;;;;;;9.68;100.00;99588.38;5051452;28;20040;-70
2023/10/31 00:10:14;;;;;;;12.05;5.18;;;;;;;9.68;100.00;99601.69;5067735;28;20848;-70
2023/10/31 00:12:40;;;;;;;12.38;5.15;;;;;;;9.65;100.00;99603.75;5067988;28;20028;-70
2023/10/31 00:15:05;;;;;;;13.13;6.10;;;;;;;9.69;100.00;99596.13;5069320;28;20021;-70
2023/10/31 00:17:31;;;;;;;11.85;6.00;;;;;;;9.70;100.00;99595.13;5067835;28;20117;-70
2023/10/31 00:19:56;;;;;;;15.20;6.85;;;;;;;9.73;100.00;99602.66;5069367;28;20024;-70
2023/10/31 00:22:22;;;;;;;13.32;5.95;;;;;;;9.72;100.00;99600.19;5068002;28;20468;-71
2023/10/31 00:24:47;;;;;;;15.65;7.20;;;;;;;9.74;100.00;99616.78;5068794;28;20032;-71
2023/10/31 00:27:14;;;;;;;14.75;7.53;;;;;;;9.69;100.00;99603.31;5067764;28;20576;-71
2023/10/31 00:29:40;;;;;;;17.30;8.43;;;;;;;9.75;100.00;99608.59;5068688;28;20111;-71
2023/10/31 00:32:05;;;;;;;16.25;7.93;;;;;;;9.79;100.00;99609.75;5067739;28;20115;-71
2023/10/31 00:34:31;;;;;;;18.30;8.50;;;;;;;9.74;100.00;99604.28;5068931;28;20039;-71
2023/10/31 00:36:56;;;;;;;17.25;7.78;;;;;;;9.74;100.00;99606.13;5067646;28;20051;-71
2023/10/31 00:39:21;;;;;;;16.38;8.05;;;;;;;9.78;100.00;99616.13;5069140;28;20464;-71
2023/10/31 00:41:47;;;;;;;16.95;8.30;;;;;;;9.84;100.00;99622.41;5067687;28;20036;-71
2023/10/31 00:44:13;;;;;;;15.00;7.63;;;;;;;9.83;100.00;99618.13;5051328;28;20037;-71
2023/10/31 00:46:38;;;;;;;15.75;8.45;;;;;;;9.67;100.00;99606.22;5068860;28;20033;-71
2023/10/31 00:49:04;;;;;;;20.17;9.38;;;;;;;9.82;100.00;99630.63;5068693;28;20051;-71
2023/10/31 00:51:29;;;;;;;14.15;7.25;;;;;;;9.76;100.00;99628.84;5067477;28;20081;-71
2023/10/31 00:53:55;;;;;;;14.93;6.60;;;;;;;9.78;100.00;99626.78;5068792;28;20032;-71
2023/10/31 00:56:20;;;;;;;14.35;6.82;;;;;;;9.76;100.00;99630.69;5067784;28;20028;-71
2023/10/31 00:58:46;;;;;;;12.20;6.38;;;;;;;9.79;100.00;99649.69;5068969;28;20378;-71
2023/10/31 01:01:11;;;;;;;10.40;5.55;;;;;;;9.70;100.00;99632.38;5067652;28;20436;-71
2023/10/31 01:03:37;;;;;;;11.88;5.95;;;;;;;9.67;100.00;99627.50;5069228;28;20036;-71
2023/10/31 01:06:03;;;;;;;8.25;4.55;;;;;;;9.76;100.00;99649.31;5067129;28;20043;-71
2023/10/31 01:08:29;;;;;;;11.10;4.13;;;;;;;9.73;100.00;99644.44;5068448;28;20036;-71
2023/10/31 01:10:55;;;;;;;6.97;3.33;;;;;;;9.65;100.00;99638.38;5068420;28;20033;-71
2023/10/31 01:13:20;;;;;;;5.88;3.47;;;;;;;9.71;100.00;99651.84;5068476;28;20025;-71
2023/10/31 01:15:46;;;;;;;5.30;2.80;;;;;;;9.66;100.00;99644.50;5068444;28;20028;-71
2023/10/31 01:18:11;;;;;;;5.60;2.95;;;;;;;9.59;100.00;99647.25;5068839;28;20036;-71
2023/10/31 01:20:38;;;;;;;5.88;3.03;;;;;;;9.56;100.00;99636.22;5067352;28;20105;-71
2023/10/31 01:23:03;;;;;;;7.20;3.03;;;;;;;9.61;100.00;99641.69;5068733;28;20040;-71
2023/10/31 01:25:29;;;;;;;5.35;3.30;;;;;;;9.54;100.00;99636.44;5068517;28;20041;-71
2023/10/31 01:27:54;;;;;;;13.07;3.60;;;;;;;9.56;100.00;99644.19;5068535;28;20082;-71
2023/10/31 01:30:19;;;;;;;6.13;2.67;;;;;;;9.74;100.00;99670.03;5067395;28;20039;-71
2023/10/31 01:32:45;;;;;;;6.18;3.40;;;;;;;9.69;100.00;99661.88;5068702;28;20042;-71
2023/10/31 01:35:10;;;;;;;8.80;3.53;;;;;;;9.69;100.00;99661.88;5068706;28;20380;-71
2023/10/31 01:37:36;;;;;;;5.43;3.25;;;;;;;9.77;100.00;99672.25;5067173;28;20025;-71
2023/10/31 01:40:03;;;;;;;9.20;3.70;;;;;;;9.65;100.00;99656.19;5068481;28;20056;-71
2023/10/31 01:42:28;;;;;;;11.35;4.57;;;;;;;9.75;100.00;99667.16;5068454;28;20035;-71
2023/10/31 01:44:53;;;;;;;11.75;4.40;;;;;;;9.76;100.00;99671.44;5067146;28;20033;-71
2023/10/31 01:47:19;;;;;;;14.20;5.93;;;;;;;9.77;100.00;99682.91;5067010;28;20056;-71
2023/10/31 01:49:44;;;;;;;15.45;5.70;;;;;;;9.75;100.00;99677.81;5069244;28;20578;-71
2023/10/31 01:52:09;;;;;;;13.30;5.78;;;;;;;9.65;100.00;99670.31;5071165;28;20119;-71
2023/10/31 01:54:35;;;;;;;17.40;7.45;;;;;;;9.70;100.00;99677.66;5070956;28;20035;-71
2023/10/31 01:57:04;;;;;;;19.85;7.80;;;;;;;9.64;100.00;99668.69;5072160;28;20046;-71
2023/10/31 01:59:30;;;;;;;22.38;9.23;;;;;;;9.75;100.00;99679.66;5071956;28;20082;-71
2023/10/31 02:01:57;;;;;;;19.73;8.27;;;;;;;9.73;100.00;99671.06;5070894;28;20045;-71
2023/10/31 02:04:24;;;;;;;19.48;7.63;;;;;;;9.76;100.00;99678.63;5072187;28;20472;-71
2023/10/31 02:06:49;;;;;;;20.50;8.38;;;;;;;9.77;100.00;99680.22;5070613;28;20033;-71
2023/10/31 02:09:14;;;;;;;21.20;9.70;;;;;;;9.77;100.00;99680.22;5070916;28;20074;-71
2023/10/31 02:11:40;;;;;;;24.42;10.68;;;;;;;9.79;100.00;99683.50;5072044;28;20028;-71
2023/10/31 02:14:05;;;;;;;22.92;11.30;;;;;;;9.76;100.00;99673.28;5072179;28;20119;-71
2023/10/31 02:16:30;;;;;;;20.30;9.80;;;;;;;9.79;100.00;99683.50;5054301;28;20040;-71
2023/10/31 02:18:56;;;;;;;24.48;12.07;;;;;;;9.79;100.00;99678.16;5072276;28;20063;-71
2023/10/31 02:21:21;;;;;;;27.08;12.07;;;;;;;9.75;100.00;99674.34;5072087;28;20480;-71
2023/10/31 02:24:01;;;;;;;22.77;11.20;;;;;;;9.81;100.00;99676.91;5053922;28;20115;-71
2023/10/31 02:26:31;;;;;;;24.85;11.90;;;;;;;9.76;100.00;99662.63;5069747;28;20045;-71
2023/10/31 02:28:56;;;;;;;25.52;11.80;;;;;;;9.77;100.00;99666.91;5071255;28;20173;-72
2023/10/31 02:31:21;;;;;;;24.77;11.93;;;;;;;9.78;100.00;99672.03;5070240;28;20442;-71
2023/10/31 02:33:47;;;;;;;28.52;11.75;;;;;;;9.79;100.00;99675.50;5071255;28;20044;-71
2023/10/31 02:36:12;;;;;;;27.25;12.25;;;;;;;9.72;100.00;99664.09;5070344;28;20659;-71
2023/10/31 02:38:38;;;;;;;27.45;13.43;;;;;;;9.78;100.00;99671.22;5071579;28;20032;-71
2023/10/31 02:41:03;;;;;;;28.90;16.02;;;;;;;9.78;100.00;99673.88;5070273;28;20654;-71
2023/10/31 02:43:28;;;;;;;30.48;14.70;;;;;;;9.83;100.00;99684.69;5070104;28;20051;-71
2023/10/31 02:45:54;;;;;;;29.25;14.45;;;;;;;9.84;100.00;99688.97;5071452;28;20506;-71
2023/10/31 02:48:20;;;;;;;29.52;15.32;;;;;;;9.86;100.00;99685.06;5071460;28;20024;-71
2023/10/31 02:50:45;;;;;;;29.48;15.25;;;;;;;9.86;100.00;99684.25;5071324;28;20032;-71
2023/10/31 02:53:11;;;;;;;32.03;15.40;;;;;;;9.71;100.00;99665.16;5071279;28;20028;-71
2023/10/31 02:55:36;;;;;;;30.42;15.35;;;;;;;9.90;100.00;99698.75;5053329;28;20729;-71
2023/10/31 02:58:01;;;;;;;34.72;16.50;;;;;;;9.91;100.00;99703.03;5071430;28;20117;-71
2023/10/31 03:00:27;;;;;;;31.23;16.45;;;;;;;9.70;100.00;99674.19;5070226;28;20748;-71
2023/10/31 03:02:52;;;;;;;34.67;17.13;;;;;;;9.92;100.00;99699.34;5071528;28;20025;-71
2023/10/31 03:05:18;;;;;;;32.88;16.05;;;;;;;9.87;100.00;99689.34;5069812;28;20170;-71
2023/10/31 03:07:44;;;;;;;34.63;17.40;;;;;;;9.93;100.00;99708.13;5071043;28;20032;-71
2023/10/31 03:10:10;;;;;;;35.72;16.40;;;;;;;9.93;100.00;99701.00;5053335;28;20395;-71
2023/10/31 03:12:36;;;;;;;34.05;18.73;;;;;;;9.78;100.00;99685.34;5070868;28;20119;-71
2023/10/31 03:15:03;;;;;;;34.25;16.80;;;;;;;9.86;100.00;99705.56;5052999;28;20060;-71
2023/10/31 03:17:29;;;;;;;34.03;17.60;;;;;;;9.94;100.00;99715.91;5070893;28;20035;-71
2023/10/31 03:19:54;;;;;;;35.20;17.45;;;;;;;9.84;100.00;99696.97;5069738;28;20033;-72
2023/10/31 03:22:20;;;;;;;34.58;19.35;;;;;;;9.84;100.00;99707.63;5070962;28;20028;-71
2023/10/31 03:24:46;;;;;;;33.15;17.52;;;;;;;9.87;100.00;99713.31;5069150;28;20070;-71
2023/10/31 03:27:11;;;;;;;32.70;18.40;;;;;;;9.89;100.00;99721.09;5070189;28;20056;-71
2023/10/31 03:29:36;;;;;;;33.10;16.50;;;;;;;9.94;100.00;99729.22;5070653;28;20043;-71
2023/10/31 03:32:02;;;;;;;33.40;17.58;;;;;;;9.83;100.00;99708.66;5070025;28;20074;-71
2023/10/31 03:34:27;;;;;;;31.85;15.68;;;;;;;9.84;100.00;99720.94;5069032;28;20035;-71
2023/10/31 03:36:53;;;;;;;33.05;17.10;;;;;;;9.91;100.00;99739.53;5069399;28;20032;-71
2023/10/31 03:39:18;;;;;;;35.88;17.17;;;;;;;9.87;100.00;99737.28;5070217;28;20234;-71
2023/10/31 03:41:44;;;;;;;31.42;16.85;;;;;;;9.81;100.00;99732.03;5070497;28;20533;-71
2023/10/31 03:44:09;;;;;;;31.85;16.30;;;;;;;9.86;100.00;99746.31;5069122;28;20036;-71
2023/10/31 03:46:35;;;;;;;30.88;15.45;;;;;;;9.91;100.00;99753.66;5070335;28;20789;-72
2023/10/31 03:49:00;;;;;;;31.33;16.35;;;;;;;9.90;100.00;99753.84;5068805;28;20039;-72
2023/10/31 03:51:26;;;;;;;31.40;16.45;;;;;;;9.73;100.00;99721.66;5051736;28;20119;-71
2023/10/31 03:53:51;;;;;;;32.70;18.08;;;;;;;9.92;100.00;99759.78;5068605;28;20036;-71
2023/10/31 03:56:16;;;;;;;33.10;17.60;;;;;;;9.84;100.00;99756.34;5052044;28;20035;-71
2023/10/31 03:58:43;;;;;;;32.25;17.58;;;;;;;9.91;100.00;99763.50;5070014;28;20032;-71
2023/10/31 04:01:08;;;;;;;31.45;16.92;;;;;;;9.79;100.00;99750.88;5068623;28;20045;-71
2023/10/31 04:03:33;;;;;;;34.13;18.42;;;;;;;9.89;100.00;99769.03;5069783;28;20029;-71
2023/10/31 04:05:59;;;;;;;32.30;18.27;;;;;;;9.87;100.00;99771.09;5070057;28;20036;-71
2023/10/31 04:08:25;;;;;;;34.65;19.05;;;;;;;9.91;100.00;99776.81;5068482;28;20111;-71
2023/10/31 04:10:51;;;;;;;35.38;19.65;;;;;;;9.92;100.00;99776.56;5068636;28;20025;-71
2023/10/31 04:13:16;;;;;;;36.33;18.40;;;;;;;9.92;100.00;99784.56;5068338;28;20043;-71
2023/10/31 04:15:42;;;;;;;38.30;19.30;;;;;;;9.94;100.00;99784.34;5068467;28;20028;-71
2023/10/31 04:18:07;;;;;;;35.33;18.02;;;;;;;9.90;100.00;99786.63;5069853;28;20070;-71
2023/10/31 04:20:32;;;;;;;39.47;20.88;;;;;;;9.95;100.00;99799.28;5069471;28;20062;-72
2023/10/31 04:22:58;;;;;;;35.38;19.35;;;;;;;9.97;100.00;99787.38;5068238;28;20081;-71
2023/10/31 04:25:23;;;;;;;38.00;20.33;;;;;;;9.81;100.00;99772.78;5068513;28;20119;-71
2023/10/31 04:27:49;;;;;;;38.38;18.45;;;;;;;9.92;100.00;99787.22;5068054;28;20441;-71
2023/10/31 04:30:15;;;;;;;35.20;18.77;;;;;;;9.85;100.00;99786.47;5069319;28;20103;-71
2023/10/31 04:32:40;;;;;;;40.97;23.77;;;;;;;9.87;100.00;99790.53;5069526;28;20028;-71
2023/10/31 04:35:06;;;;;;;35.42;19.23;;;;;;;9.96;100.00;99799.09;5068043;28;20052;-71
2023/10/31 04:37:31;;;;;;;37.88;19.45;;;;;;;9.91;100.00;99796.25;5067789;28;20036;-71
2023/10/31 04:39:56;;;;;;;35.17;19.52;;;;;;;9.89;100.00;99795.66;5069384;28;20028;-71
2023/10/31 04:42:22;;;;;;;40.05;20.58;;;;;;;9.88;100.00;99807.34;5067510;28;20105;-71
2023/10/31 04:44:48;;;;;;;36.17;19.40;;;;;;;9.88;100.00;99802.03;5068161;28;20476;-71
2023/10/31 04:47:13;;;;;;;35.47;20.75;;;;;;;9.87;100.00;99811.84;5069035;28;20047;-71
2023/10/31 04:49:39;;;;;;;34.30;18.77;;;;;;;9.94;100.00;99816.31;5067997;28;20051;-71
2023/10/31 04:52:04;;;;;;;36.53;20.27;;;;;;;9.85;100.00;99815.75;5067817;28;20047;-71
2023/10/31 04:54:30;;;;;;;37.88;20.77;;;;;;;9.85;100.00;99816.59;5067571;28;20058;-72
2023/10/31 04:56:55;;;;;;;34.80;20.02;;;;;;;9.76;100.00;99817.06;5067650;28;20174;-71
2023/10/31 04:59:20;;;;;;;42.00;20.35;;;;;;;9.84;100.00;99819.47;5050914;28;20028;-71
2023/10/31 05:01:50;;;;;;;34.88;16.65;;;;;;;9.80;100.00;99831.59;5059514;28;20032;-71
2023/10/31 05:04:16;;;;;;;35.58;18.52;;;;;;;9.86;100.00;99833.38;5068899;28;20029;-71
2023/10/31 05:06:42;;;;;;;38.38;20.88;;;;;;;9.85;100.00;99831.75;5068680;28;20029;-71
2023/10/31 05:09:07;;;;;;;35.10;19.08;;;;;;;9.77;100.00;99821.34;5067515;28;20035;-71
2023/10/31 05:11:33;;;;;;;34.55;19.42;;;;;;;9.84;100.00;99840.78;5067748;28;20033;-71
2023/10/31 05:13:58;;;;;;;33.17;19.05;;;;;;;9.85;100.00;99839.72;5069096;28;20047;-71
2023/10/31 05:16:24;;;;;;;33.65;17.30;;;;;;;9.72;100.00;99813.19;5068783;28;20028;-71
2023/10/31 05:18:49;;;;;;;31.30;16.92;;;;;;;9.77;100.00;99830.19;5068930;28;20039;-71
2023/10/31 05:21:19;;;;;;;30.40;14.90;;;;;;;9.71;100.00;99836.34;5067654;28;20025;-71
2023/10/31 05:23:44;;;;;;;31.15;15.95;;;;;;;9.79;100.00;99849.41;5068238;28;20040;-71
2023/10/31 05:26:10;;;;;;;27.42;14.27;;;;;;;9.80;100.00;99850.25;5071293;28;20059;-71
2023/10/31 05:28:35;;;;;;;28.70;14.50;;;;;;;9.77;100.00;99847.97;5072885;28;20076;-72
2023/10/31 05:31:01;;;;;;;31.15;15.98;;;;;;;9.68;100.00;99838.66;5071459;28;20408;-72
2023/10/31 05:33:26;;;;;;;26.65;13.55;;;;;;;9.73;100.00;99839.63;5054769;28;20036;-72
2023/10/31 05:35:51;;;;;;;25.38;12.95;;;;;;;9.75;100.00;99855.41;5054827;28;20033;-71
2023/10/31 05:38:17;;;;;;;25.50;12.65;;;;;;;9.68;100.00;99844.78;5072550;28;20024;-71
2023/10/31 05:40:42;;;;;;;27.95;13.90;;;;;;;9.70;100.00;99849.91;5071281;28;20024;-71
2023/10/31 05:43:08;;;;;;;27.48;14.43;;;;;;;9.63;100.00;99850.75;5071081;28;20028;-71
2023/10/31 05:45:33;;;;;;;25.65;12.45;;;;;;;9.58;100.00;99858.56;5071154;28;20037;-71
2023/10/31 05:47:59;;;;;;;29.05;15.13;;;;;;;9.61;100.00;99859.97;5071316;28;20033;-71
2023/10/31 05:50:24;;;;;;;27.30;12.68;;;;;;;9.68;100.00;99873.25;5071080;28;20098;-71
2023/10/31 05:52:50;;;;;;;26.55;14.18;;;;;;;9.69;100.00;99877.53;5070990;28;20468;-71
2023/10/31 05:55:15;;;;;;;24.75;13.23;;;;;;;9.56;100.00;99865.97;5072312;28;20139;-71
2023/10/31 05:57:41;;;;;;;25.88;13.50;;;;;;;9.61;100.00;99881.28;5072243;28;20103;-71
2023/10/31 06:00:08;;;;;;;24.83;12.70;;;;;;;9.66;100.00;99898.22;5071748;28;20028;-72
2023/10/31 06:02:33;;;;;;;28.20;13.90;;;;;;;9.62;100.00;99890.91;5071732;28;20043;-72
2023/10/31 06:04:59;;;;;;;26.17;13.60;;;;;;;9.67;100.00;99899.06;5071997;28;20365;-71
2023/10/31 06:07:24;;;;;;;28.67;15.32;;;;;;;9.67;100.00;99909.72;5070561;28;20039;-72
2023/10/31 06:09:50;;;;;;;25.40;13.25;;;;;;;9.68;100.00;99906.00;5071711;28;20032;-72
2023/10/31 06:12:15;;;;;;;33.13;16.33;;;;;;;9.67;100.00;99912.38;5053887;28;20028;-72
2023/10/31 06:14:41;;;;;;;26.35;14.93;;;;;;;9.52;100.00;99896.69;5070585;28;20111;-71
2023/10/31 06:17:06;;;;;;;27.55;14.90;;;;;;;9.51;100.00;99889.75;5053573;28;20070;-71
2023/10/31 06:19:36;;;;;;;27.88;14.70;;;;;;;9.63;100.00;99919.97;5053797;28;20040;-71
2023/10/31 06:22:01;;;;;;;27.67;13.38;;;;;;;9.62;100.00;99922.84;5071865;28;20040;-71
2023/10/31 06:24:27;;;;;;;24.98;12.20;;;;;;;9.69;100.00;99928.94;5071491;28;20021;-71
2023/10/31 06:26:52;;;;;;;30.52;15.55;;;;;;;9.69;100.00;99928.94;5071652;28;20411;-71
2023/10/31 06:29:17;;;;;;;26.52;14.00;;;;;;;9.70;100.00;99935.09;5070447;28;20161;-71
2023/10/31 06:31:43;;;;;;;26.08;12.52;;;;;;;9.59;100.00;99920.63;5071475;28;20024;-71
2023/10/31 06:34:08;;;;;;;26.20;14.88;;;;;;;9.60;100.00;99928.38;5069997;28;20048;-71
2023/10/31 06:36:34;;;;;;;25.13;13.15;;;;;;;9.63;100.00;99933.28;5052354;28;20395;-71
2023/10/31 06:38:59;;;;;;;26.60;12.68;;;;;;;9.65;100.00;99947.19;5070479;28;20600;-71
2023/10/31 06:41:25;;;;;;;25.88;13.35;;;;;;;9.61;100.00;99940.66;5069089;28;20916;-71
2023/10/31 06:43:50;;;;;;;24.48;13.25;;;;;;;9.64;100.00;99945.56;5069289;28;20757;-71
2023/10/31 06:46:15;;;;;;;25.30;13.05;;;;;;;9.61;100.00;99940.66;5053005;28;20143;-71
2023/10/31 06:48:41;;;;;;;23.73;12.35;;;;;;;9.50;100.00;99917.38;5071399;28;20054;-71
2023/10/31 06:51:07;;;;;;;23.67;12.38;;;;;;;9.49;100.00;99917.59;5069556;28;20036;-71
2023/10/31 06:53:32;;;;;;;23.65;11.80;;;;;;;9.68;100.00;99958.44;5070488;28;20044;-72
2023/10/31 06:55:57;;;;;;;21.52;10.90;;;;;;;9.66;100.00;99954.13;5070364;28;20464;-72
2023/10/31 06:58:23;;;;;;;23.17;11.02;;;;;;;9.63;100.00;99959.09;5068848;28;20731;-71
2023/10/31 07:00:48;;;;;;;20.98;10.73;;;;;;;9.61;100.00;99959.28;5069322;28;20437;-71
2023/10/31 07:03:15;;;;;;;22.42;10.43;;;;;;;9.65;100.00;99965.81;5070774;28;20064;-71
2023/10/31 07:05:41;;;;;;;24.48;12.50;;;;;;;9.59;100.00;99972.00;5070603;28;20037;-72
2023/10/31 07:08:06;;;;;;;23.92;13.43;;;;;;;9.63;100.00;99970.53;5070921;28;20058;-71
2023/10/31 07:10:33;;;;;;;24.02;12.18;;;;;;;9.52;100.00;99963.22;5069624;28;20042;-72
2023/10/31 07:12:58;;;;;;;25.58;13.27;;;;;;;9.65;100.00;99981.00;5070582;28;20052;-72
2023/10/31 07:15:27;;;;;;;26.23;14.32;;;;;;;9.60;100.00;99973.63;5070353;28;20418;-71
2023/10/31 07:17:52;;;;;;;22.80;12.43;;;;;;;9.62;100.00;99968.91;5071134;28;20111;-71
2023/10/31 07:20:18;;;;;;;26.70;13.45;;;;;;;9.59;100.00;99973.88;5069173;28;20107;-71
2023/10/31 07:22:43;;;;;;;26.02;13.90;;;;;;;9.53;100.00;99962.19;5069327;28;20034;-71
2023/10/31 07:25:09;;;;;;;26.08;14.98;;;;;;;9.61;100.00;99971.78;5069166;28;20036;-71
2023/10/31 07:27:34;;;;;;;29.00;14.80;;;;;;;9.63;100.00;99961.75;5069167;28;20139;-72
2023/10/31 07:30:00;;;;;;;28.13;13.70;;;;;;;9.71;100.00;99968.66;5068829;28;20106;-71
2023/10/31 07:32:25;;;;;;;27.00;15.52;;;;;;;9.74;100.00;99969.06;5069923;28;20059;-72
2023/10/31 07:34:51;;;;;;;26.60;12.40;;;;;;;9.75;100.00;99978.69;5068883;28;20025;-72
2023/10/31 07:37:16;;;;;;;26.50;12.85;;;;;;;9.74;100.00;99970.91;5052041;28;20028;-72
2023/10/31 07:39:42;;;;;;;25.08;12.00;;;;;;;9.62;100.00;99962.78;5051986;28;20029;-73
2023/10/31 07:42:07;;;;;;;24.77;12.95;;;;;;;9.68;100.00;99964.59;5069826;28;20137;-75
2023/10/31 07:44:33;;;;;;;24.17;11.20;;;;;;;9.73;100.00;99977.28;5069758;28;20062;-72
2023/10/31 07:46:58;;;;;;;25.58;13.07;;;;;;;9.65;100.00;99957.84;5069794;28;20052;-72
2023/10/31 07:49:24;;;;;;;22.60;11.18;;;;;;;9.64;100.00;99955.38;5069664;28;20025;-72
2023/10/31 07:51:49;;;;;;;23.85;12.48;;;;;;;9.67;100.00;99965.63;5069007;28;20039;-72
2023/10/31 07:54:16;;;;;;;21.90;10.90;;;;;;;9.77;100.00;99987.28;5068738;28;20119;-71
2023/10/31 07:56:41;;;;;;;24.17;11.32;;;;;;;9.81;100.00;99990.34;5070129;28;20078;-71
2023/10/31 07:59:09;;;;;;;21.33;9.88;;;;;;;9.78;100.00;99996.09;5069477;28;20028;-73
2023/10/31 08:01:35;;;;;;;22.60;10.80;;;;;;;9.75;100.00;100002.66;5068273;28;20155;-72
2023/10/31 08:04:01;;;;;;;24.75;11.63;;;;;;;9.76;100.00;100000.81;5068557;28;20376;-71
2023/10/31 08:06:26;;;;;;;21.30;11.13;;;;;;;9.79;100.00;100003.03;5050468;28;20040;-72
2023/10/31 08:08:51;;;;;;;22.92;11.15;;;;;;;9.84;100.00;100000.56;5067254;28;20028;-72
2023/10/31 08:11:17;;;;;;;22.13;12.10;;;;;;;9.79;100.00;99985.22;5068660;28;20111;-71
2023/10/31 08:13:42;;;;;;;25.40;11.90;;;;;;;9.89;100.00;100000.75;5067073;28;20044;-71
2023/10/31 08:16:08;;;;;;;22.20;11.35;;;;;;;9.96;100.00;99998.88;5067220;28;20041;-71
2023/10/31 08:18:34;;;;;;;24.08;12.20;;;;;;;10.06;100.00;100012.53;5067101;28;20107;-71
2023/10/31 08:21:00;;;;;;;27.88;13.43;;;;;;;10.12;100.00;100015.38;5068361;28;20126;-71
2023/10/31 08:23:25;;;;;;;21.13;11.38;;;;;;;10.13;100.00;100023.13;5050780;28;20044;-71
2023/10/31 08:25:51;;;;;;;26.38;13.45;;;;;;;10.17;100.00;100016.38;5068532;28;20060;-72
2023/10/31 08:28:16;;;;;;;23.13;13.13;;;;;;;10.19;100.00;100019.63;5066020;28;20594;-70
2023/10/31 08:30:42;;;;;;;23.70;12.52;;;;;;;10.14;100.00;100006.13;5068139;28;20119;-68
2023/10/31 08:33:07;;;;;;;23.80;12.55;;;;;;;10.24;100.00;100006.50;5065019;28;20036;-69
2023/10/31 08:35:33;;;;;;;27.55;13.55;;;;;;;10.30;100.00;100020.84;5064267;28;20029;-68
2023/10/31 08:37:58;;;;;;;25.60;13.35;;;;;;;10.26;100.00;100011.59;5064172;28;20039;-67
2023/10/31 08:40:24;;;;;;;21.90;12.02;;;;;;;10.37;100.00;100026.09;5064441;28;20032;-68
2023/10/31 08:42:49;;;;;;;23.52;12.88;;;;;;;10.43;100.00;100041.25;5065630;28;20032;-69
2023/10/31 08:45:15;;;;;;;24.52;12.05;;;;;;;10.46;100.00;100043.47;5066325;28;20060;-69
2023/10/31 08:47:40;;;;;;;27.35;14.63;;;;;;;10.51;100.00;100039.13;5066092;28;20056;-69
2023/10/31 08:50:08;;;;;;;26.42;12.98;;;;;;;10.50;100.00;100050.81;5066294;28;20387;-69
2023/10/31 08:52:33;;;;;;;25.23;13.95;;;;;;;10.48;100.00;100042.22;5066492;28;20480;-71
2023/10/31 08:54:59;;;;;;;25.35;13.38;;;;;;;10.48;100.00;100050.22;5064127;28;20047;-71
2023/10/31 08:57:24;;;;;;;28.42;13.98;;;;;;;10.53;100.00;100053.06;5065805;28;20036;-71
2023/10/31 08:59:50;;;;;;;26.38;13.98;;;;;;;10.65;100.00;100052.34;5063412;28;20479;-70
2023/10/31 09:02:15;;;;;;;29.20;14.70;;;;;;;10.68;100.00;100046.59;5048534;28;20603;-71
2023/10/31 09:04:40;;;;;;;28.65;13.85;;;;;;;10.53;100.00;100026.41;5067689;28;20043;-71
2023/10/31 09:07:06;;;;;;;28.30;13.18;;;;;;;10.82;100.00;100066.81;5067458;28;20060;-71
2023/10/31 09:09:31;;;;;;;28.20;14.18;;;;;;;10.74;100.00;100056.38;5033974;28;20812;-71
2023/10/31 09:11:57;;;;;;;26.40;14.77;;;;;;;10.71;100.00;100048.81;5067846;28;20495;-70
2023/10/31 09:14:22;;;;;;;26.92;14.05;;;;;;;10.84;100.00;100072.72;5067625;28;20028;-71
2023/10/31 09:16:47;;;;;;;25.95;13.93;;;;;;;10.85;100.00;100082.38;5067759;28;20043;-71
2023/10/31 09:19:13;;;;;;;22.77;11.02;;;;;;;10.93;100.00;100082.09;5067751;28;20501;-71
2023/10/31 09:21:38;;;;;;;26.13;13.82;;;;;;;10.89;100.00;100070.22;5067404;28;20044;-70
2023/10/31 09:24:04;;;;;;;22.73;12.75;;;;;;;10.96;100.00;100091.50;5066108;28;20451;-71
2023/10/31 09:26:29;;;;;;;26.73;12.52;;;;;;;10.97;100.00;100095.81;5067383;28;20063;-71
2023/10/31 09:28:55;;;;;;;28.92;13.02;;;;;;;10.87;100.00;100084.81;5067515;28;20044;-71
2023/10/31 09:31:20;;;;;;;27.17;12.48;;;;;;;10.77;100.00;100087.97;5067310;28;20032;-71
2023/10/31 09:33:46;;;;;;;24.00;10.95;;;;;;;10.79;100.00;100088.56;5049688;28;20123;-70
2023/10/31 09:36:13;;;;;;;27.38;12.45;;;;;;;10.88;100.00;100111.28;5066961;28;20025;-70
2023/10/31 09:38:38;;;;;;;26.45;13.93;;;;;;;10.97;100.00;100112.63;5067402;28;20192;-70
2023/10/31 09:41:04;;;;;;;23.77;11.35;;;;;;;10.87;100.00;100106.13;5066351;28;20170;-70
2023/10/31 09:43:30;;;;;;;27.17;12.57;;;;;;;10.94;100.00;100112.25;5067199;28;20040;-70
2023/10/31 09:45:57;;;;;;;24.55;13.38;;;;;;;10.97;100.00;100122.47;5067200;28;20028;-71
2023/10/31 09:48:23;;;;;;;21.98;11.38;;;;;;;10.86;100.00;100108.00;5066930;28;20028;-71
2023/10/31 09:50:49;;;;;;;21.55;10.75;;;;;;;11.03;100.00;100113.63;5066882;28;20111;-70
2023/10/31 09:53:16;;;;;;;24.10;11.52;;;;;;;11.23;100.00;100125.97;5067186;28;20166;-70
2023/10/31 09:55:42;;;;;;;22.92;10.88;;;;;;;11.28;100.00;100129.63;5065539;28;20036;-71
2023/10/31 09:58:08;;;;;;;25.00;12.35;;;;;;;11.33;100.00;100132.44;5064874;28;20101;-70
2023/10/31 10:00:33;;;;;;;23.05;11.35;;;;;;;11.21;100.00;100146.72;5065423;28;20032;-72
2023/10/31 10:02:59;;;;;;;23.88;11.18;;;;;;;11.17;100.00;100154.38;5065929;28;20067;-71
2023/10/31 10:05:25;;;;;;;22.10;10.60;;;;;;;11.29;100.00;100157.13;5066311;28;20118;-72
2023/10/31 10:07:50;;;;;;;20.92;10.25;;;;;;;11.39;100.00;100155.59;5064802;28;20356;-73
2023/10/31 10:10:16;;;;;;;22.38;10.95;;;;;;;11.37;100.00;100162.19;5066848;28;20028;-71
2023/10/31 10:12:43;;;;;;;20.83;9.63;;;;;;;11.31;100.00;100168.41;5068758;28;20025;-70
2023/10/31 10:15:10;;;;;;;22.27;10.75;;;;;;;11.24;100.00;100168.47;5069160;28;20968;-75
2023/10/31 10:17:35;;;;;;;21.85;9.95;;;;;;;11.19;100.00;100179.81;5069452;28;20028;-74
2023/10/31 10:20:09;;;;;;;23.67;10.40;;;;;;;11.18;100.00;100175.47;5069618;28;20039;-70
2023/10/31 10:22:42;;;;;;;23.15;10.98;;;;;;;11.11;100.00;100181.94;5067613;28;20508;-69
2023/10/31 10:25:15;;;;;;;25.05;10.57;;;;;;;11.01;100.00;100192.25;5068509;28;20033;-73
2023/10/31 10:27:44;;;;;;;24.00;10.95;;;;;;;10.91;100.00;100196.22;5067981;28;20052;-73
2023/10/31 10:30:10;;;;;;;23.45;11.82;;;;;;;10.81;100.00;100187.03;5070537;28;20036;-70
2023/10/31 10:32:35;;;;;;;24.55;11.00;;;;;;;10.81;100.00;100193.19;5069497;28;20103;-70
2023/10/31 10:35:01;;;;;;;22.75;10.48;;;;;;;10.90;100.00;100201.78;5070901;28;20434;-70
2023/10/31 10:37:27;;;;;;;24.38;10.80;;;;;;;10.95;100.00;100200.09;5070984;28;20082;-70
2023/10/31 10:39:55;;;;;;;25.95;10.63;;;;;;;10.92;100.00;100195.16;5069296;28;20026;-70
2023/10/31 10:42:29;;;;;;;22.20;9.75;;;;;;;11.05;100.00;100210.28;5070893;28;20456;-70
2023/10/31 10:44:59;;;;;;;21.77;11.13;;;;;;;11.06;100.00;100200.44;5069081;28;20032;-70
2023/10/31 10:47:25;;;;;;;24.35;10.95;;;;;;;11.15;100.00;100199.94;5070688;28;20032;-70
2023/10/31 10:49:55;;;;;;;23.17;11.38;;;;;;;11.15;100.00;100205.28;5069396;28;20043;-71
2023/10/31 10:52:28;;;;;;;24.33;10.90;;;;;;;11.20;100.00;100209.97;5070419;28;20024;-71
2023/10/31 10:55:04;;;;;;;20.95;10.30;;;;;;;11.22;100.00;100204.44;5070470;28;20932;-70
2023/10/31 10:57:33;;;;;;;22.10;10.07;;;;;;;11.33;100.00;100220.56;5070266;28;20051;-70
2023/10/31 11:00:03;;;;;;;25.17;9.57;;;;;;;11.28;100.00;100188.34;5069952;28;20570;-70
2023/10/31 11:02:29;;;;;;;18.92;8.07;;;;;;;11.54;100.00;100214.03;5070410;28;20105;-71
2023/10/31 11:04:56;;;;;;;19.85;8.75;;;;;;;11.56;100.00;100221.81;5052671;28;20037;-71
2023/10/31 11:07:23;;;;;;;18.95;7.88;;;;;;;11.42;100.00;100202.41;5068948;28;20078;-70